sensor_id;sensor_type;location;lat;lon;timestamp;pressure;altitude;pressure_sealevel;temperature;humidity
12757;BME280;31601;48.042;12.240;2023-02-14T00:02:15;98061.22;;;2.46;73.25
12757;BME280;31601;48.042;12.240;2023-02-14T00:04:42;98056.59;;;2.51;72.89
12757;BME280;31601;48.042;12.240;2023-02-14T00:07:11;98060.28;;;2.47;73.11
12757;BME280;31601;48.042;12.240;2023-02-14T00:09:37;98075.06;;;2.30;73.74
12757;BME280;31601;48.042;12.240;2023-02-14T00:12:04;98066.94;;;2.37;73.46
12757;BME280;31601;48.042;12.240;2023-02-14T00:14:32;98060.50;;;2.28;73.59
12757;BME280;31601;48.042;12.240;2023-02-14T00:17:17;98060.41;;;2.29;73.51
12757;BME280;31601;48.042;12.240;2023-02-14T00:19:43;98068.22;;;2.13;73.92
12757;BME280;31601;48.042;12.240;2023-02-14T00:22:09;98066.41;;;2.30;73.62
12757;BME280;31601;48.042;12.240;2023-02-14T00:24:36;98061.56;;;2.40;73.40
12757;BME280;31601;48.042;12.240;2023-02-14T00:27:02;98053.56;;;2.28;73.61
12757;BME280;31601;48.042;12.240;2023-02-14T00:29:30;98048.97;;;2.33;73.20
12757;BME280;31601;48.042;12.240;2023-02-14T00:31:59;98055.25;;;2.29;73.37
12757;BME280;31601;48.042;12.240;2023-02-14T00:34:26;98058.34;;;2.20;73.60
12757;BME280;31601;48.042;12.240;2023-02-14T00:36:53;98046.13;;;2.22;73.44
12757;BME280;31601;48.042;12.240;2023-02-14T00:39:20;98047.69;;;2.41;73.25
12757;BME280;31601;48.042;12.240;2023-02-14T00:41:46;98050.50;;;2.22;74.19
12757;BME280;31601;48.042;12.240;2023-02-14T00:44:13;98054.50;;;2.27;73.73
12757;BME280;31601;48.042;12.240;2023-02-14T00:46:39;98052.94;;;2.39;73.58
12757;BME280;31601;48.042;12.240;2023-02-14T00:49:08;98060.63;;;2.41;73.97
12757;BME280;31601;48.042;12.240;2023-02-14T00:51:35;98062.53;;;2.07;74.23
12757;BME280;31601;48.042;12.240;2023-02-14T00:54:01;98059.69;;;2.11;73.95
12757;BME280;31601;48.042;12.240;2023-02-14T00:56:28;98065.88;;;2.09;73.92
12757;BME280;31601;48.042;12.240;2023-02-14T00:58:54;98063.22;;;1.94;73.97
12757;BME280;31601;48.042;12.240;2023-02-14T01:01:21;98064.72;;;1.99;74.08
12757;BME280;31601;48.042;12.240;2023-02-14T01:03:48;98066.84;;;2.22;73.45
12757;BME280;31601;48.042;12.240;2023-02-14T01:06:15;98072.31;;;2.02;73.80
12757;BME280;31601;48.042;12.240;2023-02-14T01:08:42;98074.75;;;1.89;74.43
12757;BME280;31601;48.042;12.240;2023-02-14T01:11:10;98077.75;;;1.97;74.26
12757;BME280;31601;48.042;12.240;2023-02-14T01:13:37;98072.00;;;1.92;74.34
12757;BME280;31601;48.042;12.240;2023-02-14T01:16:06;98081.16;;;1.97;74.40
12757;BME280;31601;48.042;12.240;2023-02-14T01:18:34;98079.03;;;1.40;75.56
12757;BME280;31601;48.042;12.240;2023-02-14T01:21:16;98085.06;;;1.41;76.22
12757;BME280;31601;48.042;12.240;2023-02-14T01:23:44;98082.88;;;1.33;76.58
12757;BME280;31601;48.042;12.240;2023-02-14T01:26:12;98079.25;;;1.20;76.90
12757;BME280;31601;48.042;12.240;2023-02-14T01:28:39;98081.59;;;1.24;76.64
12757;BME280;31601;48.042;12.240;2023-02-14T01:31:08;98077.81;;;1.48;76.09
12757;BME280;31601;48.042;12.240;2023-02-14T01:33:35;98073.75;;;1.59;75.82
12757;BME280;31601;48.042;12.240;2023-02-14T01:36:02;98075.06;;;1.67;75.66
12757;BME280;31601;48.042;12.240;2023-02-14T01:38:30;98076.41;;;1.90;74.80
12757;BME280;31601;48.042;12.240;2023-02-14T01:40:57;98071.75;;;1.96;74.83
12757;BME280;31601;48.042;12.240;2023-02-14T01:43:24;98077.06;;;1.77;74.63
12757;BME280;31601;48.042;12.240;2023-02-14T01:45:50;98081.09;;;1.83;74.61
12757;BME280;31601;48.042;12.240;2023-02-14T01:48:18;98068.06;;;1.69;74.89
12757;BME280;31601;48.042;12.240;2023-02-14T01:50:49;98065.31;;;1.72;74.58
12757;BME280;31601;48.042;12.240;2023-02-14T01:53:21;98061.22;;;1.52;75.30
12757;BME280;31601;48.042;12.240;2023-02-14T01:55:55;98081.38;;;1.45;75.91
12757;BME280;31601;48.042;12.240;2023-02-14T01:58:26;98067.06;;;1.71;74.85
12757;BME280;31601;48.042;12.240;2023-02-14T02:00:54;98072.75;;;1.78;74.43
12757;BME280;31601;48.042;12.240;2023-02-14T02:03:26;98075.59;;;1.73;74.51
12757;BME280;31601;48.042;12.240;2023-02-14T02:05:55;98070.16;;;1.78;74.12
12757;BME280;31601;48.042;12.240;2023-02-14T02:08:22;98066.56;;;1.65;74.25
12757;BME280;31601;48.042;12.240;2023-02-14T02:10:50;98066.91;;;1.58;74.61
12757;BME280;31601;48.042;12.240;2023-02-14T02:13:19;98067.47;;;1.48;74.92
12757;BME280;31601;48.042;12.240;2023-02-14T02:15:55;98063.59;;;1.39;75.09
12757;BME280;31601;48.042;12.240;2023-02-14T02:18:32;98053.66;;;1.31;75.51
12757;BME280;31601;48.042;12.240;2023-02-14T02:21:53;98054.38;;;1.67;74.38
12757;BME280;31601;48.042;12.240;2023-02-14T02:24:38;98053.63;;;1.65;74.44
12757;BME280;31601;48.042;12.240;2023-02-14T02:27:24;98059.38;;;1.54;74.72
12757;BME280;31601;48.042;12.240;2023-02-14T02:30:27;98061.72;;;1.74;74.24
12757;BME280;31601;48.042;12.240;2023-02-14T02:36:07;98055.06;;;1.70;74.18
12757;BME280;31601;48.042;12.240;2023-02-14T02:38:46;98058.06;;;1.78;73.86
12757;BME280;31601;48.042;12.240;2023-02-14T02:41:26;98057.66;;;1.21;75.24
12757;BME280;31601;48.042;12.240;2023-02-14T02:44:06;98045.66;;;1.20;75.42
12757;BME280;31601;48.042;12.240;2023-02-14T02:46:39;98046.22;;;1.25;75.41
12757;BME280;31601;48.042;12.240;2023-02-14T02:49:27;98037.31;;;1.31;75.10
12757;BME280;31601;48.042;12.240;2023-02-14T02:52:16;98040.78;;;1.47;74.89
12757;BME280;31601;48.042;12.240;2023-02-14T02:58:26;98040.31;;;1.23;74.92
12757;BME280;31601;48.042;12.240;2023-02-14T03:00:57;98048.16;;;1.21;75.05
12757;BME280;31601;48.042;12.240;2023-02-14T03:03:25;98031.25;;;1.32;74.82
12757;BME280;31601;48.042;12.240;2023-02-14T03:06:11;98029.91;;;1.40;74.50
12757;BME280;31601;48.042;12.240;2023-02-14T03:08:39;98032.84;;;1.50;74.40
12757;BME280;31601;48.042;12.240;2023-02-14T03:11:05;98037.03;;;1.69;74.08
12757;BME280;31601;48.042;12.240;2023-02-14T03:14:07;98033.66;;;1.67;73.91
12757;BME280;31601;48.042;12.240;2023-02-14T03:16:48;98034.84;;;1.77;74.04
12757;BME280;31601;48.042;12.240;2023-02-14T03:19:30;98036.78;;;1.73;73.58
12757;BME280;31601;48.042;12.240;2023-02-14T03:22:05;98033.16;;;1.76;73.83
12757;BME280;31601;48.042;12.240;2023-02-14T03:24:43;98030.56;;;1.76;73.63
12757;BME280;31601;48.042;12.240;2023-02-14T03:27:15;98042.94;;;1.87;73.44
12757;BME280;31601;48.042;12.240;2023-02-14T03:29:55;98037.16;;;1.97;73.15
12757;BME280;31601;48.042;12.240;2023-02-14T03:32:30;98029.38;;;1.97;72.82
12757;BME280;31601;48.042;12.240;2023-02-14T03:35:05;98043.84;;;2.02;72.80
12757;BME280;31601;48.042;12.240;2023-02-14T03:37:38;98043.69;;;1.73;72.81
12757;BME280;31601;48.042;12.240;2023-02-14T03:40:12;98038.75;;;1.52;72.93
12757;BME280;31601;48.042;12.240;2023-02-14T03:42:44;98033.84;;;1.48;73.17
12757;BME280;31601;48.042;12.240;2023-02-14T03:45:26;98042.88;;;1.56;73.43
12757;BME280;31601;48.042;12.240;2023-02-14T03:47:56;98046.03;;;1.61;73.26
12757;BME280;31601;48.042;12.240;2023-02-14T03:50:26;98051.78;;;1.35;73.49
12757;BME280;31601;48.042;12.240;2023-02-14T03:52:55;98037.66;;;1.24;73.73
12757;BME280;31601;48.042;12.240;2023-02-14T03:55:29;98040.16;;;1.42;73.09
12757;BME280;31601;48.042;12.240;2023-02-14T03:58:05;98050.25;;;1.47;73.32
12757;BME280;31601;48.042;12.240;2023-02-14T04:00:35;98044.66;;;1.22;72.93
12757;BME280;31601;48.042;12.240;2023-02-14T04:03:05;98039.66;;;1.19;73.19
12757;BME280;31601;48.042;12.240;2023-02-14T04:05:32;98041.94;;;1.08;73.28
12757;BME280;31601;48.042;12.240;2023-02-14T04:07:59;98037.88;;;1.04;73.27
12757;BME280;31601;48.042;12.240;2023-02-14T04:10:26;98037.88;;;0.86;74.19
12757;BME280;31601;48.042;12.240;2023-02-14T04:12:53;98040.44;;;0.53;74.61
12757;BME280;31601;48.042;12.240;2023-02-14T04:15:20;98042.16;;;0.52;75.08
12757;BME280;31601;48.042;12.240;2023-02-14T04:17:46;98049.16;;;0.85;74.25
12757;BME280;31601;48.042;12.240;2023-02-14T04:20:30;98045.47;;;0.89;74.51
12757;BME280;31601;48.042;12.240;2023-02-14T04:22:57;98039.75;;;1.00;74.29
12757;BME280;31601;48.042;12.240;2023-02-14T04:25:23;98049.84;;;1.22;73.57
12757;BME280;31601;48.042;12.240;2023-02-14T04:27:51;98038.72;;;1.20;73.86
12757;BME280;31601;48.042;12.240;2023-02-14T04:30:18;98027.53;;;1.04;73.90
12757;BME280;31601;48.042;12.240;2023-02-14T04:32:45;98024.47;;;1.29;73.50
12757;BME280;31601;48.042;12.240;2023-02-14T04:35:11;98031.13;;;1.17;73.55
12757;BME280;31601;48.042;12.240;2023-02-14T04:37:38;98027.97;;;1.28;73.72
12757;BME280;31601;48.042;12.240;2023-02-14T04:40:06;98026.81;;;0.84;73.42
12757;BME280;31601;48.042;12.240;2023-02-14T04:42:32;98031.31;;;0.81;74.09
12757;BME280;31601;48.042;12.240;2023-02-14T04:45:00;98036.38;;;0.82;74.09
12757;BME280;31601;48.042;12.240;2023-02-14T04:47:26;98030.75;;;0.92;73.87
12757;BME280;31601;48.042;12.240;2023-02-14T04:49:53;98023.94;;;0.73;74.48
12757;BME280;31601;48.042;12.240;2023-02-14T04:52:19;98018.31;;;0.82;74.02
12757;BME280;31601;48.042;12.240;2023-02-14T04:54:46;98023.34;;;0.50;74.94
12757;BME280;31601;48.042;12.240;2023-02-14T04:57:12;98017.84;;;0.74;74.64
12757;BME280;31601;48.042;12.240;2023-02-14T04:59:39;98018.22;;;0.84;74.56
12757;BME280;31601;48.042;12.240;2023-02-14T05:02:07;98026.38;;;0.76;74.08
12757;BME280;31601;48.042;12.240;2023-02-14T05:04:33;98015.47;;;0.87;74.40
12757;BME280;31601;48.042;12.240;2023-02-14T05:06:59;98009.44;;;1.04;74.03
12757;BME280;31601;48.042;12.240;2023-02-14T05:09:26;98009.47;;;0.86;74.04
12757;BME280;31601;48.042;12.240;2023-02-14T05:11:53;98013.56;;;0.91;74.01
12757;BME280;31601;48.042;12.240;2023-02-14T05:14:19;98009.69;;;1.15;73.68
12757;BME280;31601;48.042;12.240;2023-02-14T05:16:46;98013.31;;;1.29;73.37
12757;BME280;31601;48.042;12.240;2023-02-14T05:19:14;98002.63;;;1.35;73.18
12757;BME280;31601;48.042;12.240;2023-02-14T05:21:40;98014.31;;;1.42;73.19
12757;BME280;31601;48.042;12.240;2023-02-14T05:24:06;98006.28;;;1.31;73.25
12757;BME280;31601;48.042;12.240;2023-02-14T05:26:33;98007.47;;;1.41;73.42
12757;BME280;31601;48.042;12.240;2023-02-14T05:28:59;98010.56;;;1.48;73.30
12757;BME280;31601;48.042;12.240;2023-02-14T05:31:26;98017.91;;;1.55;72.77
12757;BME280;31601;48.042;12.240;2023-02-14T05:33:52;98012.47;;;1.60;72.77
12757;BME280;31601;48.042;12.240;2023-02-14T05:36:20;98015.25;;;1.41;72.88
12757;BME280;31601;48.042;12.240;2023-02-14T05:38:46;98022.88;;;1.27;73.30
12757;BME280;31601;48.042;12.240;2023-02-14T05:41:13;98024.66;;;1.42;73.12
12757;BME280;31601;48.042;12.240;2023-02-14T05:43:39;98022.66;;;1.47;73.26
12757;BME280;31601;48.042;12.240;2023-02-14T05:46:06;98027.00;;;1.47;73.28
12757;BME280;31601;48.042;12.240;2023-02-14T05:48:32;98026.41;;;1.41;73.06
12757;BME280;31601;48.042;12.240;2023-02-14T05:51:02;98034.97;;;1.10;73.37
12757;BME280;31601;48.042;12.240;2023-02-14T05:53:30;98033.38;;;1.23;73.48
12757;BME280;31601;48.042;12.240;2023-02-14T05:55:56;98034.56;;;1.34;73.25
12757;BME280;31601;48.042;12.240;2023-02-14T05:58:23;98027.06;;;1.29;73.18
12757;BME280;31601;48.042;12.240;2023-02-14T06:00:49;98026.13;;;1.14;73.29
12757;BME280;31601;48.042;12.240;2023-02-14T06:03:16;98024.47;;;1.13;73.43
12757;BME280;31601;48.042;12.240;2023-02-14T06:05:42;98025.31;;;1.30;73.15
12757;BME280;31601;48.042;12.240;2023-02-14T06:08:09;98019.22;;;1.31;73.37
12757;BME280;31601;48.042;12.240;2023-02-14T06:10:36;98020.66;;;1.36;73.27
12757;BME280;31601;48.042;12.240;2023-02-14T06:13:03;98027.06;;;1.45;73.07
12757;BME280;31601;48.042;12.240;2023-02-14T06:15:33;98021.16;;;1.43;73.00
12757;BME280;31601;48.042;12.240;2023-02-14T06:17:59;98029.16;;;1.54;72.72
12757;BME280;31601;48.042;12.240;2023-02-14T06:20:26;98028.00;;;1.44;72.96
12757;BME280;31601;48.042;12.240;2023-02-14T06:22:53;98037.75;;;1.39;72.82
12757;BME280;31601;48.042;12.240;2023-02-14T06:25:20;98028.34;;;1.38;72.92
12757;BME280;31601;48.042;12.240;2023-02-14T06:27:48;98032.88;;;1.17;73.25
12757;BME280;31601;48.042;12.240;2023-02-14T06:30:15;98034.16;;;0.92;73.91
12757;BME280;31601;48.042;12.240;2023-02-14T06:32:42;98038.03;;;1.01;73.55
12757;BME280;31601;48.042;12.240;2023-02-14T06:35:09;98039.03;;;1.14;73.37
12757;BME280;31601;48.042;12.240;2023-02-14T06:37:35;98032.06;;;1.16;73.34
12757;BME280;31601;48.042;12.240;2023-02-14T06:40:06;98027.16;;;1.28;73.24
12757;BME280;31601;48.042;12.240;2023-02-14T06:42:33;98029.91;;;1.24;73.41
12757;BME280;31601;48.042;12.240;2023-02-14T06:45:01;98036.59;;;1.45;72.89
12757;BME280;31601;48.042;12.240;2023-02-14T06:47:27;98034.09;;;1.43;72.79
12757;BME280;31601;48.042;12.240;2023-02-14T06:49:54;98034.50;;;1.35;72.61
12757;BME280;31601;48.042;12.240;2023-02-14T06:52:20;98041.50;;;1.49;73.08
12757;BME280;31601;48.042;12.240;2023-02-14T06:54:47;98045.88;;;1.49;73.23
12757;BME280;31601;48.042;12.240;2023-02-14T06:57:13;98045.28;;;1.59;73.15
12757;BME280;31601;48.042;12.240;2023-02-14T06:59:40;98039.44;;;1.72;72.82
12757;BME280;31601;48.042;12.240;2023-02-14T07:02:09;98039.03;;;1.79;72.30
12757;BME280;31601;48.042;12.240;2023-02-14T07:04:36;98031.16;;;1.33;72.47
12757;BME280;31601;48.042;12.240;2023-02-14T07:07:02;98041.84;;;1.59;72.32
12757;BME280;31601;48.042;12.240;2023-02-14T07:09:29;98039.94;;;1.63;72.33
12757;BME280;31601;48.042;12.240;2023-02-14T07:11:55;98039.84;;;1.48;72.07
12757;BME280;31601;48.042;12.240;2023-02-14T07:14:22;98040.91;;;1.28;72.24
12757;BME280;31601;48.042;12.240;2023-02-14T07:16:48;98040.09;;;1.43;72.21
12757;BME280;31601;48.042;12.240;2023-02-14T07:19:16;98041.84;;;1.59;72.41
12757;BME280;31601;48.042;12.240;2023-02-14T07:21:43;98040.53;;;1.68;72.63
12757;BME280;31601;48.042;12.240;2023-02-14T07:24:09;98035.19;;;1.71;72.43
12757;BME280;31601;48.042;12.240;2023-02-14T07:26:35;98033.66;;;1.67;72.21
12757;BME280;31601;48.042;12.240;2023-02-14T07:29:02;98027.34;;;1.56;72.56
12757;BME280;31601;48.042;12.240;2023-02-14T07:31:29;98021.22;;;1.57;72.19
12757;BME280;31601;48.042;12.240;2023-02-14T07:33:56;98023.81;;;1.89;71.79
12757;BME280;31601;48.042;12.240;2023-02-14T07:36:26;98024.91;;;2.01;71.88
12757;BME280;31601;48.042;12.240;2023-02-14T07:38:54;98026.03;;;2.11;71.53
12757;BME280;31601;48.042;12.240;2023-02-14T07:41:21;98025.19;;;2.11;71.40
12757;BME280;31601;48.042;12.240;2023-02-14T07:43:47;98017.66;;;2.22;71.14
12757;BME280;31601;48.042;12.240;2023-02-14T07:46:14;98021.28;;;2.20;71.04
12757;BME280;31601;48.042;12.240;2023-02-14T07:48:41;98019.19;;;2.10;70.91
12757;BME280;31601;48.042;12.240;2023-02-14T07:51:08;98023.38;;;1.97;70.70
12757;BME280;31601;48.042;12.240;2023-02-14T07:53:36;98020.16;;;1.93;71.06
12757;BME280;31601;48.042;12.240;2023-02-14T07:56:03;98015.03;;;2.08;71.27
12757;BME280;31601;48.042;12.240;2023-02-14T07:58:29;98024.47;;;2.09;71.32
12757;BME280;31601;48.042;12.240;2023-02-14T08:00:56;98014.50;;;2.17;70.62
12757;BME280;31601;48.042;12.240;2023-02-14T08:03:23;98018.59;;;2.21;70.67
12757;BME280;31601;48.042;12.240;2023-02-14T08:05:49;98013.09;;;2.42;70.40
12757;BME280;31601;48.042;12.240;2023-02-14T08:08:23;98017.47;;;2.56;70.30
12757;BME280;31601;48.042;12.240;2023-02-14T08:10:51;98010.47;;;2.72;70.10
12757;BME280;31601;48.042;12.240;2023-02-14T08:13:17;98005.13;;;2.75;69.67
12757;BME280;31601;48.042;12.240;2023-02-14T08:15:44;98009.97;;;2.65;69.50
12757;BME280;31601;48.042;12.240;2023-02-14T08:18:28;98005.38;;;2.71;69.03
12757;BME280;31601;48.042;12.240;2023-02-14T08:20:54;98011.31;;;2.73;69.29
12757;BME280;31601;48.042;12.240;2023-02-14T08:23:21;98006.47;;;2.81;69.03
12757;BME280;31601;48.042;12.240;2023-02-14T08:25:49;98002.97;;;2.96;68.95
12757;BME280;31601;48.042;12.240;2023-02-14T08:28:17;98002.34;;;2.93;68.42
12757;BME280;31601;48.042;12.240;2023-02-14T08:30:44;98002.22;;;2.65;67.82
12757;BME280;31601;48.042;12.240;2023-02-14T08:33:11;98005.75;;;2.79;67.58
12757;BME280;31601;48.042;12.240;2023-02-14T08:35:39;98004.84;;;2.80;67.66
12757;BME280;31601;48.042;12.240;2023-02-14T08:38:06;98003.38;;;3.04;67.61
12757;BME280;31601;48.042;12.240;2023-02-14T08:40:33;97992.78;;;3.22;67.38
12757;BME280;31601;48.042;12.240;2023-02-14T08:43:01;97997.41;;;3.31;67.35
12757;BME280;31601;48.042;12.240;2023-02-14T08:45:31;97999.19;;;3.31;67.13
12757;BME280;31601;48.042;12.240;2023-02-14T08:48:02;97999.97;;;3.60;67.07
12757;BME280;31601;48.042;12.240;2023-02-14T08:50:29;97996.63;;;3.58;66.08
12757;BME280;31601;48.042;12.240;2023-02-14T08:52:55;97995.34;;;3.51;65.35
12757;BME280;31601;48.042;12.240;2023-02-14T08:55:22;97993.81;;;3.34;65.28
12757;BME280;31601;48.042;12.240;2023-02-14T08:57:49;97990.53;;;3.45;65.90
12757;BME280;31601;48.042;12.240;2023-02-14T09:00:15;97994.09;;;3.15;65.63
12757;BME280;31601;48.042;12.240;2023-02-14T09:02:44;97991.13;;;3.35;65.44
12757;BME280;31601;48.042;12.240;2023-02-14T09:05:10;97994.69;;;3.47;65.37
12757;BME280;31601;48.042;12.240;2023-02-14T09:07:40;97989.47;;;2.77;65.69
12757;BME280;31601;48.042;12.240;2023-02-14T09:10:07;97996.84;;;2.54;66.64
12757;BME280;31601;48.042;12.240;2023-02-14T09:12:38;97992.97;;;2.61;67.52
12757;BME280;31601;48.042;12.240;2023-02-14T09:15:05;97993.75;;;2.92;66.95
12757;BME280;31601;48.042;12.240;2023-02-14T09:17:32;97994.75;;;2.75;67.26
12757;BME280;31601;48.042;12.240;2023-02-14T09:19:59;97988.72;;;3.18;66.71
12757;BME280;31601;48.042;12.240;2023-02-14T09:22:26;97988.72;;;3.18;66.21
12757;BME280;31601;48.042;12.240;2023-02-14T09:24:53;97988.06;;;3.14;66.91
12757;BME280;31601;48.042;12.240;2023-02-14T09:27:21;97983.09;;;3.53;66.48
12757;BME280;31601;48.042;12.240;2023-02-14T09:29:47;97987.72;;;3.62;65.78
12757;BME280;31601;48.042;12.240;2023-02-14T09:32:14;97990.78;;;2.98;66.11
12757;BME280;31601;48.042;12.240;2023-02-14T09:34:41;97991.47;;;2.43;67.23
12757;BME280;31601;48.042;12.240;2023-02-14T09:37:10;97990.88;;;2.38;68.19
12757;BME280;31601;48.042;12.240;2023-02-14T09:39:54;97986.56;;;2.53;68.85
12757;BME280;31601;48.042;12.240;2023-02-14T09:42:35;98004.22;;;2.15;69.44
12757;BME280;31601;48.042;12.240;2023-02-14T09:45:05;97992.44;;;1.79;70.63
12757;BME280;31601;48.042;12.240;2023-02-14T09:47:35;97991.94;;;1.57;72.32
12757;BME280;31601;48.042;12.240;2023-02-14T09:50:06;97986.81;;;2.33;70.40
12757;BME280;31601;48.042;12.240;2023-02-14T09:52:42;97986.84;;;2.18;70.60
12757;BME280;31601;48.042;12.240;2023-02-14T09:55:13;97981.81;;;2.45;69.85
12757;BME280;31601;48.042;12.240;2023-02-14T09:57:44;97983.88;;;2.54;69.21
12757;BME280;31601;48.042;12.240;2023-02-14T10:00:22;97982.88;;;2.85;68.77
12757;BME280;31601;48.042;12.240;2023-02-14T10:02:57;97980.94;;;2.75;68.55
12757;BME280;31601;48.042;12.240;2023-02-14T10:05:29;97980.56;;;2.52;69.49
12757;BME280;31601;48.042;12.240;2023-02-14T10:08:08;97982.78;;;2.87;68.54
12757;BME280;31601;48.042;12.240;2023-02-14T10:10:45;97999.44;;;2.24;69.53
12757;BME280;31601;48.042;12.240;2023-02-14T10:13:18;97988.53;;;2.63;69.04
12757;BME280;31601;48.042;12.240;2023-02-14T10:15:57;97986.00;;;2.47;69.91
12757;BME280;31601;48.042;12.240;2023-02-14T10:18:27;97983.09;;;2.97;68.30
12757;BME280;31601;48.042;12.240;2023-02-14T10:20:57;97981.81;;;3.46;68.10
12757;BME280;31601;48.042;12.240;2023-02-14T10:23:29;97978.50;;;3.44;67.35
12757;BME280;31601;48.042;12.240;2023-02-14T10:26:00;97974.00;;;3.60;66.86
12757;BME280;31601;48.042;12.240;2023-02-14T10:28:31;97974.78;;;4.15;66.23
12757;BME280;31601;48.042;12.240;2023-02-14T10:31:15;97972.69;;;4.07;65.17
12757;BME280;31601;48.042;12.240;2023-02-14T10:33:50;97971.44;;;4.00;64.93
12757;BME280;31601;48.042;12.240;2023-02-14T10:36:26;97970.09;;;4.07;65.48
12757;BME280;31601;48.042;12.240;2023-02-14T10:39:02;97971.69;;;4.10;65.64
12757;BME280;31601;48.042;12.240;2023-02-14T10:41:40;97962.00;;;4.12;65.77
12757;BME280;31601;48.042;12.240;2023-02-14T10:44:19;97963.47;;;3.76;66.30
12757;BME280;31601;48.042;12.240;2023-02-14T10:46:55;97959.78;;;4.33;64.81
12757;BME280;31601;48.042;12.240;2023-02-14T10:49:28;97954.69;;;4.44;64.16
12757;BME280;31601;48.042;12.240;2023-02-14T10:52:01;97957.00;;;3.69;65.24
12757;BME280;31601;48.042;12.240;2023-02-14T10:54:36;97954.06;;;3.88;65.32
12757;BME280;31601;48.042;12.240;2023-02-14T10:57:06;97949.53;;;4.04;64.47
12757;BME280;31601;48.042;12.240;2023-02-14T10:59:44;97953.31;;;3.86;65.91
12757;BME280;31601;48.042;12.240;2023-02-14T11:02:15;97946.97;;;3.50;66.76
12757;BME280;31601;48.042;12.240;2023-02-14T11:04:42;97940.38;;;3.02;68.33
12757;BME280;31601;48.042;12.240;2023-02-14T11:07:11;97942.13;;;3.16;68.53
12757;BME280;31601;48.042;12.240;2023-02-14T11:09:39;97937.69;;;3.46;67.69
12757;BME280;31601;48.042;12.240;2023-02-14T11:12:07;97938.06;;;3.54;67.35
12757;BME280;31601;48.042;12.240;2023-02-14T11:14:37;97933.88;;;3.10;68.23
12757;BME280;31601;48.042;12.240;2023-02-14T11:17:25;97924.91;;;3.43;68.31
12757;BME280;31601;48.042;12.240;2023-02-14T11:19:55;97922.53;;;3.39;67.61
12757;BME280;31601;48.042;12.240;2023-02-14T11:22:28;97915.81;;;3.50;68.08
12757;BME280;31601;48.042;12.240;2023-02-14T11:25:03;97907.63;;;3.83;68.05
12757;BME280;31601;48.042;12.240;2023-02-14T11:27:31;97903.31;;;4.22;67.08
12757;BME280;31601;48.042;12.240;2023-02-14T11:29:58;97908.84;;;4.82;66.61
12757;BME280;31601;48.042;12.240;2023-02-14T11:32:27;97896.66;;;5.19;64.95
12757;BME280;31601;48.042;12.240;2023-02-14T11:34:59;97900.31;;;5.17;64.54
12757;BME280;31601;48.042;12.240;2023-02-14T11:37:27;97889.03;;;5.05;63.56
12757;BME280;31601;48.042;12.240;2023-02-14T11:39:56;97893.13;;;4.71;64.49
12757;BME280;31601;48.042;12.240;2023-02-14T11:42:37;97882.13;;;4.54;65.27
12757;BME280;31601;48.042;12.240;2023-02-14T11:45:06;97889.19;;;4.39;65.99
12757;BME280;31601;48.042;12.240;2023-02-14T11:47:34;97885.88;;;4.37;65.30
12757;BME280;31601;48.042;12.240;2023-02-14T11:50:18;97879.22;;;4.46;66.05
12757;BME280;31601;48.042;12.240;2023-02-14T11:52:49;97882.94;;;4.29;68.06
12757;BME280;31601;48.042;12.240;2023-02-14T11:55:23;97881.06;;;4.18;68.03
12757;BME280;31601;48.042;12.240;2023-02-14T11:57:52;97877.34;;;4.09;68.37
12757;BME280;31601;48.042;12.240;2023-02-14T12:00:20;97874.59;;;3.85;67.83
12757;BME280;31601;48.042;12.240;2023-02-14T12:02:49;97873.38;;;4.17;67.45
12757;BME280;31601;48.042;12.240;2023-02-14T12:05:18;97866.44;;;4.43;67.38
12757;BME280;31601;48.042;12.240;2023-02-14T12:07:47;97862.38;;;4.52;67.18
12757;BME280;31601;48.042;12.240;2023-02-14T12:10:19;97857.38;;;4.61;67.09
12757;BME280;31601;48.042;12.240;2023-02-14T12:12:52;97853.38;;;4.81;66.75
12757;BME280;31601;48.042;12.240;2023-02-14T12:15:27;97852.19;;;4.98;66.28
12757;BME280;31601;48.042;12.240;2023-02-14T12:17:59;97852.81;;;5.02;66.11
12757;BME280;31601;48.042;12.240;2023-02-14T12:20:35;97850.66;;;4.83;66.49
12757;BME280;31601;48.042;12.240;2023-02-14T12:23:08;97846.31;;;4.71;67.39
12757;BME280;31601;48.042;12.240;2023-02-14T12:25:39;97844.63;;;5.19;66.59
12757;BME280;31601;48.042;12.240;2023-02-14T12:28:12;97839.47;;;5.31;66.17
12757;BME280;31601;48.042;12.240;2023-02-14T12:30:40;97836.28;;;5.27;65.97
12757;BME280;31601;48.042;12.240;2023-02-14T12:33:15;97835.06;;;5.44;65.98
12757;BME280;31601;48.042;12.240;2023-02-14T12:35:46;97834.44;;;5.76;65.46
12757;BME280;31601;48.042;12.240;2023-02-14T12:38:21;97827.06;;;5.70;66.00
12757;BME280;31601;48.042;12.240;2023-02-14T12:40:57;97822.72;;;6.06;65.15
12757;BME280;31601;48.042;12.240;2023-02-14T12:43:41;97815.59;;;5.97;64.10
12757;BME280;31601;48.042;12.240;2023-02-14T12:46:32;97820.25;;;5.91;63.69
12757;BME280;31601;48.042;12.240;2023-02-14T12:51:57;97808.97;;;6.38;63.02
12757;BME280;31601;48.042;12.240;2023-02-14T12:57:29;97809.13;;;5.89;64.26
12757;BME280;31601;48.042;12.240;2023-02-14T13:00:15;97800.94;;;6.18;63.45
12757;BME280;31601;48.042;12.240;2023-02-14T13:02:57;97791.69;;;6.25;63.54
12757;BME280;31601;48.042;12.240;2023-02-14T13:05:36;97790.63;;;6.39;63.25
12757;BME280;31601;48.042;12.240;2023-02-14T13:08:20;97791.91;;;6.00;64.35
12757;BME280;31601;48.042;12.240;2023-02-14T13:10:53;97784.34;;;6.31;64.52
12757;BME280;31601;48.042;12.240;2023-02-14T13:13:32;97785.19;;;6.20;64.19
12757;BME280;31601;48.042;12.240;2023-02-14T13:16:10;97782.31;;;6.00;64.67
12757;BME280;31601;48.042;12.240;2023-02-14T13:18:46;97773.69;;;6.00;65.44
12757;BME280;31601;48.042;12.240;2023-02-14T13:21:18;97779.81;;;6.10;64.82
12757;BME280;31601;48.042;12.240;2023-02-14T13:23:52;97769.41;;;6.44;64.81
12757;BME280;31601;48.042;12.240;2023-02-14T13:26:24;97774.25;;;6.15;64.55
12757;BME280;31601;48.042;12.240;2023-02-14T13:28:55;97776.41;;;6.43;64.39
12757;BME280;31601;48.042;12.240;2023-02-14T13:31:23;97770.44;;;6.64;63.80